sensor_id;sensor_type;location;lat;lon;timestamp;P1;durP1;ratioP1;P2;durP2;ratioP2
13012;SDS011;22580;57.670;12.006;2023-05-10T00:01:48;1.50;;;1.40;;
13012;SDS011;22580;57.670;12.006;2023-05-10T00:04:17;1.00;;;1.00;;
13012;SDS011;22580;57.670;12.006;2023-05-10T00:06:44;1.42;;;1.33;;
13012;SDS011;22580;57.670;12.006;2023-05-10T00:09:12;1.25;;;1.17;;
13012;SDS011;22580;57.670;12.006;2023-05-10T00:11:40;1.23;;;1.20;;
13012;SDS011;22580;57.670;12.006;2023-05-10T00:14:07;1.40;;;1.30;;
13012;SDS011;22580;57.670;12.006;2023-05-10T00:16:34;1.50;;;1.40;;
13012;SDS011;22580;57.670;12.006;2023-05-10T00:19:01;1.00;;;1.00;;
13012;SDS011;22580;57.670;12.006;2023-05-10T00:21:29;1.20;;;1.10;;
13012;SDS011;22580;57.670;12.006;2023-05-10T00:23:58;1.43;;;1.00;;
13012;SDS011;22580;57.670;12.006;2023-05-10T00:26:25;1.30;;;1.20;;
13012;SDS011;22580;57.670;12.006;2023-05-10T00:28:52;1.10;;;1.10;;
13012;SDS011;22580;57.670;12.006;2023-05-10T00:31:20;1.40;;;1.30;;
13012;SDS011;22580;57.670;12.006;2023-05-10T00:33:46;1.30;;;1.30;;
13012;SDS011;22580;57.670;12.006;2023-05-10T00:36:13;1.00;;;1.00;;
13012;SDS011;22580;57.670;12.006;2023-05-10T00:38:42;1.40;;;1.30;;
13012;SDS011;22580;57.670;12.006;2023-05-10T00:41:09;1.00;;;1.00;;
13012;SDS011;22580;57.670;12.006;2023-05-10T00:43:36;1.37;;;1.30;;
13012;SDS011;22580;57.670;12.006;2023-05-10T00:46:02;1.20;;;1.10;;
13012;SDS011;22580;57.670;12.006;2023-05-10T00:48:31;0.87;;;0.87;;
13012;SDS011;22580;57.670;12.006;2023-05-10T00:50:58;0.90;;;0.90;;
13012;SDS011;22580;57.670;12.006;2023-05-10T00:53:25;1.43;;;0.90;;
13012;SDS011;22580;57.670;12.006;2023-05-10T00:55:54;0.83;;;0.83;;
13012;SDS011;22580;57.670;12.006;2023-05-10T00:58:21;0.70;;;0.70;;
13012;SDS011;22580;57.670;12.006;2023-05-10T01:00:49;1.20;;;1.10;;
13012;SDS011;22580;57.670;12.006;2023-05-10T01:03:17;0.75;;;0.75;;
13012;SDS011;22580;57.670;12.006;2023-05-10T01:05:44;1.30;;;1.20;;
13012;SDS011;22580;57.670;12.006;2023-05-10T01:08:11;1.10;;;1.00;;
13012;SDS011;22580;57.670;12.006;2023-05-10T01:10:38;1.00;;;1.00;;
13012;SDS011;22580;57.670;12.006;2023-05-10T01:13:06;1.00;;;1.00;;
13012;SDS011;22580;57.670;12.006;2023-05-10T01:15:33;1.17;;;0.87;;
13012;SDS011;22580;57.670;12.006;2023-05-10T01:18:01;0.90;;;0.90;;
13012;SDS011;22580;57.670;12.006;2023-05-10T01:20:29;0.90;;;0.90;;
13012;SDS011;22580;57.670;12.006;2023-05-10T01:23:16;0.80;;;0.80;;
13012;SDS011;22580;57.670;12.006;2023-05-10T01:34:52;0.63;;;0.63;;
13012;SDS011;22580;57.670;12.006;2023-05-10T01:37:28;0.97;;;0.90;;
13012;SDS011;22580;57.670;12.006;2023-05-10T01:40:00;0.80;;;0.80;;
13012;SDS011;22580;57.670;12.006;2023-05-10T01:42:34;0.70;;;0.70;;
13012;SDS011;22580;57.670;12.006;2023-05-10T01:45:08;1.23;;;1.03;;
13012;SDS011;22580;57.670;12.006;2023-05-10T01:47:41;1.10;;;1.00;;
13012;SDS011;22580;57.670;12.006;2023-05-10T01:50:14;0.90;;;0.90;;
13012;SDS011;22580;57.670;12.006;2023-05-10T01:52:44;0.90;;;0.90;;
13012;SDS011;22580;57.670;12.006;2023-05-10T01:55:18;1.70;;;0.97;;
13012;SDS011;22580;57.670;12.006;2023-05-10T01:57:48;0.90;;;0.90;;
13012;SDS011;22580;57.670;12.006;2023-05-10T02:00:19;0.73;;;0.73;;
13012;SDS011;22580;57.670;12.006;2023-05-10T02:02:47;0.70;;;0.70;;
13012;SDS011;22580;57.670;12.006;2023-05-10T02:05:17;1.80;;;0.97;;
13012;SDS011;22580;57.670;12.006;2023-05-10T02:07:46;1.10;;;1.00;;
13012;SDS011;22580;57.670;12.006;2023-05-10T02:10:14;1.20;;;1.20;;
13012;SDS011;22580;57.670;12.006;2023-05-10T02:12:42;0.90;;;0.90;;
13012;SDS011;22580;57.670;12.006;2023-05-10T02:15:12;1.30;;;1.30;;
13012;SDS011;22580;57.670;12.006;2023-05-10T02:17:44;1.30;;;1.20;;
13012;SDS011;22580;57.670;12.006;2023-05-10T02:20:13;1.43;;;1.33;;
13012;SDS011;22580;57.670;12.006;2023-05-10T02:22:43;1.43;;;1.33;;
13012;SDS011;22580;57.670;12.006;2023-05-10T02:25:14;1.37;;;1.30;;
13012;SDS011;22580;57.670;12.006;2023-05-10T02:27:42;1.30;;;1.20;;
13012;SDS011;22580;57.670;12.006;2023-05-10T02:30:11;1.43;;;1.33;;
13012;SDS011;22580;57.670;12.006;2023-05-10T02:32:39;1.70;;;1.60;;
13012;SDS011;22580;57.670;12.006;2023-05-10T02:35:07;1.60;;;1.50;;
13012;SDS011;22580;57.670;12.006;2023-05-10T02:37:50;1.30;;;1.30;;
13012;SDS011;22580;57.670;12.006;2023-05-10T02:40:17;1.50;;;1.40;;
13012;SDS011;22580;57.670;12.006;2023-05-10T02:42:47;1.23;;;1.13;;
13012;SDS011;22580;57.670;12.006;2023-05-10T02:45:18;1.50;;;1.40;;
13012;SDS011;22580;57.670;12.006;2023-05-10T02:47:48;1.50;;;1.40;;
13012;SDS011;22580;57.670;12.006;2023-05-10T02:50:15;1.37;;;1.27;;
13012;SDS011;22580;57.670;12.006;2023-05-10T02:52:44;1.40;;;1.30;;
13012;SDS011;22580;57.670;12.006;2023-05-10T02:55:15;1.63;;;1.53;;
13012;SDS011;22580;57.670;12.006;2023-05-10T02:57:48;1.40;;;1.40;;
13012;SDS011;22580;57.670;12.006;2023-05-10T03:00:18;1.60;;;1.50;;
13012;SDS011;22580;57.670;12.006;2023-05-10T03:02:45;1.47;;;1.37;;
13012;SDS011;22580;57.670;12.006;2023-05-10T03:05:12;1.40;;;1.30;;
13012;SDS011;22580;57.670;12.006;2023-05-10T03:07:39;1.40;;;1.30;;
13012;SDS011;22580;57.670;12.006;2023-05-10T03:10:07;1.43;;;1.33;;
13012;SDS011;22580;57.670;12.006;2023-05-10T03:12:41;1.37;;;1.27;;
13012;SDS011;22580;57.670;12.006;2023-05-10T03:15:20;1.57;;;1.47;;
13012;SDS011;22580;57.670;12.006;2023-05-10T03:18:04;1.50;;;1.40;;
13012;SDS011;22580;57.670;12.006;2023-05-10T03:20:36;2.70;;;2.03;;
13012;SDS011;22580;57.670;12.006;2023-05-10T03:23:11;1.70;;;1.60;;
13012;SDS011;22580;57.670;12.006;2023-05-10T03:25:40;1.80;;;1.70;;
13012;SDS011;22580;57.670;12.006;2023-05-10T03:28:11;1.40;;;1.30;;
13012;SDS011;22580;57.670;12.006;2023-05-10T03:30:40;1.70;;;1.53;;
13012;SDS011;22580;57.670;12.006;2023-05-10T03:33:09;1.50;;;1.40;;
13012;SDS011;22580;57.670;12.006;2023-05-10T03:35:36;1.27;;;1.17;;
13012;SDS011;22580;57.670;12.006;2023-05-10T03:38:03;1.70;;;1.60;;
13012;SDS011;22580;57.670;12.006;2023-05-10T03:40:29;1.70;;;1.60;;
13012;SDS011;22580;57.670;12.006;2023-05-10T03:42:57;1.70;;;1.60;;
13012;SDS011;22580;57.670;12.006;2023-05-10T03:45:25;1.63;;;1.53;;
13012;SDS011;22580;57.670;12.006;2023-05-10T03:47:53;1.70;;;1.60;;
13012;SDS011;22580;57.670;12.006;2023-05-10T03:50:20;2.00;;;1.60;;
13012;SDS011;22580;57.670;12.006;2023-05-10T03:52:47;1.70;;;1.60;;
13012;SDS011;22580;57.670;12.006;2023-05-10T03:55:14;1.80;;;1.70;;
13012;SDS011;22580;57.670;12.006;2023-05-10T03:57:41;1.63;;;1.53;;
13012;SDS011;22580;57.670;12.006;2023-05-10T04:00:08;1.60;;;1.50;;
13012;SDS011;22580;57.670;12.006;2023-05-10T04:02:38;1.60;;;1.50;;
13012;SDS011;22580;57.670;12.006;2023-05-10T04:05:05;1.50;;;1.40;;
13012;SDS011;22580;57.670;12.006;2023-05-10T04:07:32;2.27;;;1.80;;
13012;SDS011;22580;57.670;12.006;2023-05-10T04:09:59;1.60;;;1.50;;
13012;SDS011;22580;57.670;12.006;2023-05-10T04:12:26;1.40;;;1.30;;
13012;SDS011;22580;57.670;12.006;2023-05-10T04:14:53;1.70;;;1.60;;
13012;SDS011;22580;57.670;12.006;2023-05-10T04:17:20;1.87;;;1.70;;
13012;SDS011;22580;57.670;12.006;2023-05-10T04:19:48;1.77;;;1.67;;
13012;SDS011;22580;57.670;12.006;2023-05-10T04:22:18;1.70;;;1.60;;
13012;SDS011;22580;57.670;12.006;2023-05-10T04:24:45;2.07;;;1.67;;
13012;SDS011;22580;57.670;12.006;2023-05-10T04:27:12;1.33;;;1.20;;
13012;SDS011;22580;57.670;12.006;2023-05-10T04:29:39;1.70;;;1.60;;
13012;SDS011;22580;57.670;12.006;2023-05-10T04:32:06;1.63;;;1.53;;
13012;SDS011;22580;57.670;12.006;2023-05-10T04:34:35;1.70;;;1.60;;
13012;SDS011;22580;57.670;12.006;2023-05-10T04:37:06;2.23;;;1.77;;
13012;SDS011;22580;57.670;12.006;2023-05-10T04:39:33;1.53;;;1.43;;
13012;SDS011;22580;57.670;12.006;2023-05-10T04:42:02;1.70;;;1.60;;
13012;SDS011;22580;57.670;12.006;2023-05-10T04:44:30;1.60;;;1.50;;
13012;SDS011;22580;57.670;12.006;2023-05-10T04:46:58;2.00;;;1.60;;
13012;SDS011;22580;57.670;12.006;2023-05-10T04:49:25;1.57;;;1.47;;
13012;SDS011;22580;57.670;12.006;2023-05-10T04:51:52;1.90;;;1.77;;
13012;SDS011;22580;57.670;12.006;2023-05-10T04:54:20;1.50;;;1.40;;
13012;SDS011;22580;57.670;12.006;2023-05-10T04:56:49;2.00;;;1.80;;
13012;SDS011;22580;57.670;12.006;2023-05-10T04:59:16;1.77;;;1.67;;
13012;SDS011;22580;57.670;12.006;2023-05-10T05:01:43;1.73;;;1.63;;
13012;SDS011;22580;57.670;12.006;2023-05-10T05:04:10;1.98;;;1.88;;
13012;SDS011;22580;57.670;12.006;2023-05-10T05:06:37;1.90;;;1.80;;
13012;SDS011;22580;57.670;12.006;2023-05-10T05:09:04;2.30;;;2.10;;
13012;SDS011;22580;57.670;12.006;2023-05-10T05:11:32;2.43;;;1.77;;
13012;SDS011;22580;57.670;12.006;2023-05-10T05:13:59;1.90;;;1.80;;
13012;SDS011;22580;57.670;12.006;2023-05-10T05:16:26;1.87;;;1.73;;
13012;SDS011;22580;57.670;12.006;2023-05-10T05:18:53;2.17;;;1.98;;
13012;SDS011;22580;57.670;12.006;2023-05-10T05:21:21;1.80;;;1.70;;
13012;SDS011;22580;57.670;12.006;2023-05-10T05:23:49;1.80;;;1.70;;
13012;SDS011;22580;57.670;12.006;2023-05-10T05:26:18;2.00;;;1.90;;
13012;SDS011;22580;57.670;12.006;2023-05-10T05:28:46;1.90;;;1.80;;
13012;SDS011;22580;57.670;12.006;2023-05-10T05:31:13;2.00;;;1.90;;
13012;SDS011;22580;57.670;12.006;2023-05-10T05:33:41;1.67;;;1.57;;
13012;SDS011;22580;57.670;12.006;2023-05-10T05:36:08;1.90;;;1.80;;
13012;SDS011;22580;57.670;12.006;2023-05-10T05:38:35;2.45;;;2.00;;
13012;SDS011;22580;57.670;12.006;2023-05-10T05:41:02;1.90;;;1.80;;
13012;SDS011;22580;57.670;12.006;2023-05-10T05:43:29;2.47;;;2.22;;
13012;SDS011;22580;57.670;12.006;2023-05-10T05:45:58;1.85;;;1.75;;
13012;SDS011;22580;57.670;12.006;2023-05-10T05:48:25;1.90;;;1.80;;
13012;SDS011;22580;57.670;12.006;2023-05-10T05:50:54;1.90;;;1.80;;
13012;SDS011;22580;57.670;12.006;2023-05-10T05:53:21;2.20;;;2.00;;
13012;SDS011;22580;57.670;12.006;2023-05-10T05:55:51;1.90;;;1.80;;
13012;SDS011;22580;57.670;12.006;2023-05-10T05:58:20;2.00;;;1.83;;
13012;SDS011;22580;57.670;12.006;2023-05-10T06:00:47;2.35;;;1.92;;
13012;SDS011;22580;57.670;12.006;2023-05-10T06:03:16;2.08;;;1.92;;
13012;SDS011;22580;57.670;12.006;2023-05-10T06:05:43;2.95;;;2.08;;
13012;SDS011;22580;57.670;12.006;2023-05-10T06:08:10;1.80;;;1.70;;
13012;SDS011;22580;57.670;12.006;2023-05-10T06:10:37;1.65;;;1.50;;
13012;SDS011;22580;57.670;12.006;2023-05-10T06:13:04;1.80;;;1.70;;
13012;SDS011;22580;57.670;12.006;2023-05-10T06:15:31;2.17;;;1.88;;
13012;SDS011;22580;57.670;12.006;2023-05-10T06:17:59;2.00;;;1.90;;
13012;SDS011;22580;57.670;12.006;2023-05-10T06:20:28;2.15;;;1.85;;
13012;SDS011;22580;57.670;12.006;2023-05-10T06:22:56;1.60;;;1.50;;
13012;SDS011;22580;57.670;12.006;2023-05-10T06:25:23;2.72;;;1.90;;
13012;SDS011;22580;57.670;12.006;2023-05-10T06:27:50;2.03;;;1.83;;
13012;SDS011;22580;57.670;12.006;2023-05-10T06:30:23;1.75;;;1.65;;
13012;SDS011;22580;57.670;12.006;2023-05-10T06:32:53;2.03;;;1.92;;
13012;SDS011;22580;57.670;12.006;2023-05-10T06:35:20;2.45;;;2.13;;
13012;SDS011;22580;57.670;12.006;2023-05-10T06:37:49;1.90;;;1.80;;
13012;SDS011;22580;57.670;12.006;2023-05-10T06:40:16;2.00;;;1.90;;
13012;SDS011;22580;57.670;12.006;2023-05-10T06:42:43;2.10;;;1.90;;
13012;SDS011;22580;57.670;12.006;2023-05-10T06:45:11;2.40;;;2.05;;
13012;SDS011;22580;57.670;12.006;2023-05-10T06:47:39;1.98;;;1.85;;
13012;SDS011;22580;57.670;12.006;2023-05-10T06:50:06;2.42;;;2.22;;
13012;SDS011;22580;57.670;12.006;2023-05-10T06:52:34;2.28;;;2.08;;
13012;SDS011;22580;57.670;12.006;2023-05-10T06:55:02;2.00;;;1.90;;
13012;SDS011;22580;57.670;12.006;2023-05-10T06:57:30;2.10;;;1.90;;
13012;SDS011;22580;57.670;12.006;2023-05-10T06:59:57;1.88;;;1.77;;
13012;SDS011;22580;57.670;12.006;2023-05-10T07:02:24;2.05;;;1.95;;
13012;SDS011;22580;57.670;12.006;2023-05-10T07:04:51;2.97;;;2.15;;
13012;SDS011;22580;57.670;12.006;2023-05-10T07:07:18;1.85;;;1.75;;
13012;SDS011;22580;57.670;12.006;2023-05-10T07:09:45;2.20;;;2.00;;
13012;SDS011;22580;57.670;12.006;2023-05-10T07:12:13;2.70;;;2.00;;
13012;SDS011;22580;57.670;12.006;2023-05-10T07:14:40;1.90;;;1.80;;
13012;SDS011;22580;57.670;12.006;2023-05-10T07:17:07;2.53;;;2.05;;
13012;SDS011;22580;57.670;12.006;2023-05-10T07:19:34;2.53;;;2.30;;
13012;SDS011;22580;57.670;12.006;2023-05-10T07:22:01;2.78;;;2.15;;
13012;SDS011;22580;57.670;12.006;2023-05-10T07:24:28;2.38;;;1.90;;
13012;SDS011;22580;57.670;12.006;2023-05-10T07:26:56;2.30;;;2.10;;
13012;SDS011;22580;57.670;12.006;2023-05-10T07:29:24;1.95;;;1.85;;
13012;SDS011;22580;57.670;12.006;2023-05-10T07:31:53;2.08;;;1.90;;
13012;SDS011;22580;57.670;12.006;2023-05-10T07:34:20;2.13;;;2.00;;
13012;SDS011;22580;57.670;12.006;2023-05-10T07:36:47;2.55;;;2.20;;
13012;SDS011;22580;57.670;12.006;2023-05-10T07:39:14;3.33;;;2.00;;
13012;SDS011;22580;57.670;12.006;2023-05-10T07:41:41;2.33;;;2.08;;
13012;SDS011;22580;57.670;12.006;2023-05-10T07:44:08;2.45;;;2.10;;
13012;SDS011;22580;57.670;12.006;2023-05-10T07:46:37;2.28;;;2.10;;
13012;SDS011;22580;57.670;12.006;2023-05-10T07:49:04;2.42;;;2.22;;
13012;SDS011;22580;57.670;12.006;2023-05-10T07:51:31;2.45;;;2.15;;
13012;SDS011;22580;57.670;12.006;2023-05-10T07:53:58;2.22;;;2.13;;
13012;SDS011;22580;57.670;12.006;2023-05-10T07:56:27;2.50;;;2.30;;
13012;SDS011;22580;57.670;12.006;2023-05-10T07:58:57;2.25;;;2.13;;
13012;SDS011;22580;57.670;12.006;2023-05-10T08:01:25;2.00;;;1.90;;
13012;SDS011;22580;57.670;12.006;2023-05-10T08:03:54;1.95;;;1.85;;
13012;SDS011;22580;57.670;12.006;2023-05-10T08:06:21;2.10;;;2.00;;
13012;SDS011;22580;57.670;12.006;2023-05-10T08:08:48;3.13;;;2.00;;
13012;SDS011;22580;57.670;12.006;2023-05-10T08:11:16;1.90;;;1.80;;
13012;SDS011;22580;57.670;12.006;2023-05-10T08:13:44;1.95;;;1.85;;
13012;SDS011;22580;57.670;12.006;2023-05-10T08:16:14;1.95;;;1.85;;
13012;SDS011;22580;57.670;12.006;2023-05-10T08:18:42;1.73;;;1.55;;
13012;SDS011;22580;57.670;12.006;2023-05-10T08:21:11;2.65;;;2.45;;
13012;SDS011;22580;57.670;12.006;2023-05-10T08:23:39;2.60;;;2.40;;
13012;SDS011;22580;57.670;12.006;2023-05-10T08:26:06;2.60;;;2.40;;
13012;SDS011;22580;57.670;12.006;2023-05-10T08:28:33;2.50;;;2.20;;
13012;SDS011;22580;57.670;12.006;2023-05-10T08:31:00;2.40;;;2.20;;
13012;SDS011;22580;57.670;12.006;2023-05-10T08:33:27;2.60;;;2.22;;
13012;SDS011;22580;57.670;12.006;2023-05-10T08:35:54;2.20;;;2.10;;
13012;SDS011;22580;57.670;12.006;2023-05-10T08:38:23;3.00;;;2.30;;
13012;SDS011;22580;57.670;12.006;2023-05-10T08:40:50;3.20;;;2.33;;
13012;SDS011;22580;57.670;12.006;2023-05-10T08:43:22;2.88;;;2.22;;
13012;SDS011;22580;57.670;12.006;2023-05-10T08:45:53;2.83;;;2.35;;
13012;SDS011;22580;57.670;12.006;2023-05-10T08:48:21;2.50;;;2.30;;
13012;SDS011;22580;57.670;12.006;2023-05-10T08:50:51;2.50;;;2.30;;
13012;SDS011;22580;57.670;12.006;2023-05-10T08:53:19;2.58;;;2.17;;
13012;SDS011;22580;57.670;12.006;2023-05-10T08:55:52;2.20;;;2.10;;
13012;SDS011;22580;57.670;12.006;2023-05-10T08:58:19;2.47;;;2.30;;
13012;SDS011;22580;57.670;12.006;2023-05-10T09:00:48;2.50;;;2.40;;
13012;SDS011;22580;57.670;12.006;2023-05-10T09:03:15;2.97;;;2.35;;
13012;SDS011;22580;57.670;12.006;2023-05-10T09:05:44;2.50;;;2.30;;
13012;SDS011;22580;57.670;12.006;2023-05-10T09:08:11;2.33;;;2.20;;
13012;SDS011;22580;57.670;12.006;2023-05-10T09:10:41;2.40;;;2.30;;
13012;SDS011;22580;57.670;12.006;2023-05-10T09:13:11;2.03;;;1.92;;
13012;SDS011;22580;57.670;12.006;2023-05-10T09:15:38;2.40;;;2.20;;
13012;SDS011;22580;57.670;12.006;2023-05-10T09:18:05;2.55;;;2.35;;
13012;SDS011;22580;57.670;12.006;2023-05-10T09:20:32;2.30;;;2.10;;
13012;SDS011;22580;57.670;12.006;2023-05-10T09:22:59;2.25;;;2.15;;
13012;SDS011;22580;57.670;12.006;2023-05-10T09:25:26;2.58;;;2.40;;
13012;SDS011;22580;57.670;12.006;2023-05-10T09:27:53;2.30;;;2.20;;
13012;SDS011;22580;57.670;12.006;2023-05-10T09:30:26;2.42;;;2.22;;
13012;SDS011;22580;57.670;12.006;2023-05-10T09:32:55;2.90;;;2.70;;
13012;SDS011;22580;57.670;12.006;2023-05-10T09:35:23;3.17;;;2.88;;
13012;SDS011;22580;57.670;12.006;2023-05-10T09:37:52;4.65;;;3.35;;
13012;SDS011;22580;57.670;12.006;2023-05-10T09:40:20;6.70;;;5.63;;
13012;SDS011;22580;57.670;12.006;2023-05-10T09:42:51;15.27;;;13.40;;
13012;SDS011;22580;57.670;12.006;2023-05-10T09:45:20;14.30;;;12.90;;
13012;SDS011;22580;57.670;12.006;2023-05-10T09:47:49;13.75;;;12.45;;
13012;SDS011;22580;57.670;12.006;2023-05-10T09:50:16;7.85;;;7.15;;
13012;SDS011;22580;57.670;12.006;2023-05-10T09:52:47;5.22;;;4.80;;
13012;SDS011;22580;57.670;12.006;2023-05-10T09:55:16;4.82;;;4.43;;
13012;SDS011;22580;57.670;12.006;2023-05-10T09:57:45;4.65;;;4.15;;
13012;SDS011;22580;57.670;12.006;2023-05-10T10:00:18;4.20;;;3.83;;
13012;SDS011;22580;57.670;12.006;2023-05-10T10:02:54;7.30;;;6.55;;
13012;SDS011;22580;57.670;12.006;2023-05-10T10:05:27;6.57;;;5.97;;
13012;SDS011;22580;57.670;12.006;2023-05-10T10:07:55;10.95;;;8.77;;
13012;SDS011;22580;57.670;12.006;2023-05-10T10:10:23;11.20;;;10.13;;
13012;SDS011;22580;57.670;12.006;2023-05-10T10:12:50;22.77;;;20.67;;
13012;SDS011;22580;57.670;12.006;2023-05-10T10:15:18;47.05;;;42.40;;
13012;SDS011;22580;57.670;12.006;2023-05-10T10:17:46;44.83;;;40.42;;
13012;SDS011;22580;57.670;12.006;2023-05-10T10:20:18;22.38;;;20.17;;
13012;SDS011;22580;57.670;12.006;2023-05-10T10:22:46;9.10;;;8.30;;
13012;SDS011;22580;57.670;12.006;2023-05-10T10:25:15;7.13;;;6.53;;
13012;SDS011;22580;57.670;12.006;2023-05-10T10:27:45;4.53;;;4.22;;
13012;SDS011;22580;57.670;12.006;2023-05-10T10:30:22;4.00;;;3.70;;
13012;SDS011;22580;57.670;12.006;2023-05-10T10:35:57;3.03;;;2.78;;
13012;SDS011;22580;57.670;12.006;2023-05-10T10:38:35;2.60;;;2.50;;
13012;SDS011;22580;57.670;12.006;2023-05-10T10:41:08;2.78;;;2.58;;
13012;SDS011;22580;57.670;12.006;2023-05-10T10:43:38;3.35;;;2.47;;
13012;SDS011;22580;57.670;12.006;2023-05-10T10:46:09;2.50;;;2.40;;
13012;SDS011;22580;57.670;12.006;2023-05-10T10:48:39;2.60;;;2.40;;
13012;SDS011;22580;57.670;12.006;2023-05-10T10:51:13;2.22;;;2.13;;
13012;SDS011;22580;57.670;12.006;2023-05-10T10:53:40;1.90;;;1.80;;
13012;SDS011;22580;57.670;12.006;2023-05-10T10:56:08;2.58;;;2.40;;
13012;SDS011;22580;57.670;12.006;2023-05-10T10:58:38;2.25;;;1.90;;
13012;SDS011;22580;57.670;12.006;2023-05-10T11:01:13;2.28;;;2.13;;
13012;SDS011;22580;57.670;12.006;2023-05-10T11:06:46;2.10;;;2.00;;
13012;SDS011;22580;57.670;12.006;2023-05-10T11:09:13;2.38;;;2.28;;
13012;SDS011;22580;57.670;12.006;2023-05-10T11:11:51;2.42;;;2.22;;
13012;SDS011;22580;57.670;12.006;2023-05-10T11:14:20;2.28;;;2.10;;
13012;SDS011;22580;57.670;12.006;2023-05-10T11:16:48;2.22;;;2.13;;
13012;SDS011;22580;57.670;12.006;2023-05-10T11:19:17;2.00;;;1.90;;
13012;SDS011;22580;57.670;12.006;2023-05-10T11:21:45;1.95;;;1.85;;
13012;SDS011;22580;57.670;12.006;2023-05-10T11:24:14;2.35;;;2.20;;
13012;SDS011;22580;57.670;12.006;2023-05-10T11:26:42;2.10;;;2.00;;
13012;SDS011;22580;57.670;12.006;2023-05-10T11:29:09;2.58;;;2.20;;
13012;SDS011;22580;57.670;12.006;2023-05-10T11:31:41;2.03;;;1.92;;
13012;SDS011;22580;57.670;12.006;2023-05-10T11:34:10;1.90;;;1.80;;
13012;SDS011;22580;57.670;12.006;2023-05-10T11:36:39;2.40;;;2.20;;
13012;SDS011;22580;57.670;12.006;2023-05-10T11:39:06;1.90;;;1.80;;
13012;SDS011;22580;57.670;12.006;2023-05-10T11:41:34;2.00;;;1.90;;
13012;SDS011;22580;57.670;12.006;2023-05-10T11:44:01;2.08;;;1.98;;
13012;SDS011;22580;57.670;12.006;2023-05-10T11:46:28;2.05;;;1.95;;
13012;SDS011;22580;57.670;12.006;2023-05-10T11:48:57;1.88;;;1.77;;
13012;SDS011;22580;57.670;12.006;2023-05-10T11:51:26;1.90;;;1.80;;
13012;SDS011;22580;57.670;12.006;2023-05-10T11:53:55;1.88;;;1.75;;
13012;SDS011;22580;57.670;12.006;2023-05-10T11:56:26;1.98;;;1.83;;
13012;SDS011;22580;57.670;12.006;2023-05-10T11:58:53;1.88;;;1.70;;
13012;SDS011;22580;57.670;12.006;2023-05-10T12:01:21;1.75;;;1.65;;
13012;SDS011;22580;57.670;12.006;2023-05-10T12:03:49;1.85;;;1.75;;
13012;SDS011;22580;57.670;12.006;2023-05-10T12:06:16;2.00;;;1.90;;
13012;SDS011;22580;57.670;12.006;2023-05-10T12:08:44;2.00;;;1.90;;
13012;SDS011;22580;57.670;12.006;2023-05-10T12:11:13;2.00;;;1.90;;
13012;SDS011;22580;57.670;12.006;2023-05-10T12:13:41;2.03;;;1.92;;
13012;SDS011;22580;57.670;12.006;2023-05-10T12:16:15;1.60;;;1.58;;
13012;SDS011;22580;57.670;12.006;2023-05-10T12:18:43;1.80;;;1.70;;
13012;SDS011;22580;57.670;12.006;2023-05-10T12:21:10;2.15;;;1.85;;
13012;SDS011;22580;57.670;12.006;2023-05-10T12:23:38;1.83;;;1.67;;
13012;SDS011;22580;57.670;12.006;2023-05-10T12:26:07;1.80;;;1.70;;
13012;SDS011;22580;57.670;12.006;2023-05-10T12:28:37;1.90;;;1.80;;
13012;SDS011;22580;57.670;12.006;2023-05-10T12:31:05;2.20;;;2.00;;
13012;SDS011;22580;57.670;12.006;2023-05-10T12:33:36;1.73;;;1.63;;
13012;SDS011;22580;57.670;12.006;2023-05-10T12:36:06;1.90;;;1.80;;
13012;SDS011;22580;57.670;12.006;2023-05-10T12:38:35;1.90;;;1.80;;
13012;SDS011;22580;57.670;12.006;2023-05-10T12:41:03;1.52;;;1.50;;
13012;SDS011;22580;57.670;12.006;2023-05-10T12:43:31;1.65;;;1.55;;
13012;SDS011;22580;57.670;12.006;2023-05-10T12:46:07;1.50;;;1.40;;
13012;SDS011;22580;57.670;12.006;2023-05-10T12:48:35;2.25;;;1.80;;
13012;SDS011;22580;57.670;12.006;2023-05-10T12:51:02;1.67;;;1.58;;
13012;SDS011;22580;57.670;12.006;2023-05-10T12:53:31;1.90;;;1.80;;
13012;SDS011;22580;57.670;12.006;2023-05-10T12:55:58;1.80;;;1.70;;
13012;SDS011;22580;57.670;12.006;2023-05-10T12:58:25;1.75;;;1.65;;
13012;SDS011;22580;57.670;12.006;2023-05-10T13:00:55;1.83;;;1.73;;
13012;SDS011;22580;57.670;12.006;2023-05-10T13:03:24;2.50;;;1.90;;
13012;SDS011;22580;57.670;12.006;2023-05-10T13:05:51;1.90;;;1.80;;
13012;SDS011;22580;57.670;12.006;2023-05-10T13:08:18;1.70;;;1.60;;
13012;SDS011;22580;57.670;12.006;2023-05-10T13:10:44;1.80;;;1.70;;
13012;SDS011;22580;57.670;12.006;2023-05-10T13:13:11;1.70;;;1.60;;
13012;SDS011;22580;57.670;12.006;2023-05-10T13:15:38;1.85;;;1.75;;
13012;SDS011;22580;57.670;12.006;2023-05-10T13:18:05;1.70;;;1.60;;
13012;SDS011;22580;57.670;12.006;2023-05-10T13:20:37;1.77;;;1.67;;
13012;SDS011;22580;57.670;12.006;2023-05-10T13:23:04;1.30;;;1.30;;
13012;SDS011;22580;57.670;12.006;2023-05-10T13:25:31;1.67;;;1.58;;
13012;SDS011;22580;57.670;12.006;2023-05-10T13:27:59;2.00;;;1.90;;
13012;SDS011;22580;57.670;12.006;2023-05-10T13:30:26;1.70;;;1.60;;
13012;SDS011;22580;57.670;12.006;2023-05-10T13:32:53;1.80;;;1.70;;
13012;SDS011;22580;57.670;12.006;2023-05-10T13:35:21;1.60;;;1.50;;
13012;SDS011;22580;57.670;12.006;2023-05-10T13:37:50;1.67;;;1.58;;
13012;SDS011;22580;57.670;12.006;2023-05-10T13:40:18;1.80;;;1.70;;
13012;SDS011;22580;57.670;12.006;2023-05-10T13:42:48;1.70;;;1.60;;
13012;SDS011;22580;57.670;12.006;2023-05-10T13:45:15;1.90;;;1.80;;
13012;SDS011;22580;57.670;12.006;2023-05-10T13:47:44;1.52;;;1.42;;
13012;SDS011;22580;57.670;12.006;2023-05-10T13:50:11;1.52;;;1.42;;
13012;SDS011;22580;57.670;12.006;2023-05-10T13:52:41;1.40;;;1.30;;
13012;SDS011;22580;57.670;12.006;2023-05-10T13:55:09;1.83;;;1.73;;
13012;SDS011;22580;57.670;12.006;2023-05-10T13:57:38;1.80;;;1.70;;
13012;SDS011;22580;57.670;12.006;2023-05-10T14:00:06;1.80;;;1.70;;
13012;SDS011;22580;57.670;12.006;2023-05-10T14:02:34;1.73;;;1.63;;
13012;SDS011;22580;57.670;12.006;2023-05-10T14:05:01;1.13;;;1.13;;
13012;SDS011;22580;57.670;12.006;2023-05-10T14:07:29;1.30;;;1.23;;
13012;SDS011;22580;57.670;12.006;2023-05-10T14:09:56;1.60;;;1.50;;
13012;SDS011;22580;57.670;12.006;2023-05-10T14:12:25;1.70;;;1.60;;
13012;SDS011;22580;57.670;12.006;2023-05-10T14:14:54;1.90;;;1.70;;
13012;SDS011;22580;57.670;12.006;2023-05-10T14:17:21;1.67;;;1.58;;
13012;SDS011;22580;57.670;12.006;2023-05-10T14:19:48;1.63;;;1.52;;
13012;SDS011;22580;57.670;12.006;2023-05-10T14:22:15;1.52;;;1.48;;
13012;SDS011;22580;57.670;12.006;2023-05-10T14:24:43;1.38;;;1.38;;
13012;SDS011;22580;57.670;12.006;2023-05-10T14:27:11;1.65;;;1.55;;
13012;SDS011;22580;57.670;12.006;2023-05-10T14:29:40;1.63;;;1.52;;
13012;SDS011;22580;57.670;12.006;2023-05-10T14:32:07;2.70;;;1.92;;
13012;SDS011;22580;57.670;12.006;2023-05-10T14:34:34;2.90;;;2.00;;
13012;SDS011;22580;57.670;12.006;2023-05-10T14:37:02;6.63;;;3.88;;
13012;SDS011;22580;57.670;12.006;2023-05-10T14:39:29;6.28;;;3.58;;
13012;SDS011;22580;57.670;12.006;2023-05-10T14:41:56;3.63;;;3.13;;
13012;SDS011;22580;57.670;12.006;2023-05-10T14:44:23;3.03;;;2.30;;
13012;SDS011;22580;57.670;12.006;2023-05-10T14:46:52;2.83;;;2.22;;
13012;SDS011;22580;57.670;12.006;2023-05-10T14:49:20;2.50;;;2.30;;
13012;SDS011;22580;57.670;12.006;2023-05-10T14:51:47;2.47;;;2.28;;
13012;SDS011;22580;57.670;12.006;2023-05-10T14:54:15;2.30;;;2.00;;
13012;SDS011;22580;57.670;12.006;2023-05-10T14:56:42;2.25;;;2.08;;